createdAt,value
2023-01-22T00:04:02.149Z,100321.59
2023-01-22T00:10:04.411Z,100315.25
2023-01-22T00:16:07.562Z,100320.13
2023-01-22T00:22:11.506Z,100329.34
2023-01-22T00:28:13.481Z,100339.13
2023-01-22T00:34:15.406Z,100335.59
2023-01-22T00:40:18.150Z,100336.53
2023-01-22T00:46:20.540Z,100330.06
2023-01-22T00:52:22.447Z,100328.59
2023-01-22T00:58:25.525Z,100333.16
2023-01-22T01:04:27.468Z,100325.47
2023-01-22T01:10:29.380Z,100336.44
2023-01-22T01:16:32.480Z,100330.31
2023-01-22T01:22:34.391Z,100323.59
2023-01-22T01:28:38.072Z,100327.84
2023-01-22T01:34:43.506Z,100321.94
2023-01-22T01:40:45.507Z,100314.72
2023-01-22T01:46:52.031Z,100302.13
2023-01-22T01:52:54.452Z,100300.19
2023-01-22T01:59:03.035Z,100309.72
2023-01-22T02:05:06.541Z,100310.34
2023-01-22T02:11:10.011Z,100307.81
2023-01-22T02:17:16.466Z,100313.06
2023-01-22T02:23:18.383Z,100317.44
2023-01-22T02:29:20.330Z,100311.03
2023-01-22T02:35:22.288Z,100316.13
2023-01-22T02:41:25.211Z,100324.03
2023-01-22T02:47:27.181Z,100325.34
2023-01-22T02:53:29.143Z,100324.59
2023-01-22T02:59:31.098Z,100326.41
2023-01-22T03:05:35.687Z,100322.75
2023-01-22T03:11:39.615Z,100323.69
2023-01-22T03:18:00.258Z,100316.66
2023-01-22T03:24:02.161Z,100323.50
2023-01-22T03:30:04.718Z,100309.94
2023-01-22T03:36:11.186Z,100315.22
2023-01-22T03:42:13.125Z,100329.03
2023-01-22T03:48:15.057Z,100323.50
2023-01-22T03:54:17.294Z,100328.94
2023-01-22T04:00:20.287Z,100328.09
2023-01-22T04:06:24.213Z,100326.41
2023-01-22T04:12:26.092Z,100317.66
2023-01-22T04:18:28.415Z,100322.38
2023-01-22T04:24:30.296Z,100311.25
2023-01-22T04:30:32.522Z,100311.19
2023-01-22T04:36:34.478Z,100307.44
2023-01-22T04:42:36.423Z,100309.59
2023-01-22T04:48:38.310Z,100310.78
2023-01-22T04:54:40.224Z,100319.81
2023-01-22T05:00:42.137Z,100318.38
2023-01-22T05:06:44.017Z,100326.28
2023-01-22T05:12:46.250Z,100328.00
2023-01-22T05:18:48.186Z,100335.53
2023-01-22T05:24:50.123Z,100338.84
2023-01-22T05:30:52.210Z,100347.56
2023-01-22T05:36:54.147Z,100348.31
2023-01-22T05:42:56.092Z,100361.19
2023-01-22T05:48:58.846Z,100364.94
2023-01-22T05:55:01.891Z,100363.28
2023-01-22T06:01:03.962Z,100366.13
2023-01-22T06:07:05.843Z,100363.41
2023-01-22T06:13:07.761Z,100363.25
2023-01-22T06:19:10.122Z,100369.53
2023-01-22T06:25:12.041Z,100375.03
2023-01-22T06:31:14.026Z,100387.34
2023-01-22T06:37:16.019Z,100378.66
2023-01-22T06:43:17.931Z,100382.75
2023-01-22T06:49:19.901Z,100392.97
2023-01-22T06:55:21.774Z,100400.28
2023-01-22T07:01:23.731Z,100408.69
2023-01-22T07:07:25.733Z,100418.09
2023-01-22T07:13:27.684Z,100424.06
2023-01-22T07:19:29.592Z,100429.09
2023-01-22T07:25:31.479Z,100438.00
2023-01-22T07:31:33.352Z,100443.09
2023-01-22T07:37:36.472Z,100446.44
2023-01-22T07:43:38.425Z,100435.06
2023-01-22T07:49:40.343Z,100439.31
2023-01-22T07:55:42.354Z,100442.06
2023-01-22T08:01:44.231Z,100447.78
2023-01-22T08:07:46.273Z,100449.03
2023-01-22T08:13:48.243Z,100453.53
2023-01-22T08:19:50.162Z,100463.41
2023-01-22T08:25:52.042Z,100460.84
2023-01-22T08:31:54.085Z,100473.41
2023-01-22T08:37:59.941Z,100464.91
2023-01-22T08:44:02.012Z,100478.72
2023-01-22T08:50:04.351Z,100478.84
2023-01-22T08:56:06.856Z,100478.38
2023-01-22T09:02:13.604Z,100484.56
2023-01-22T09:08:15.611Z,100486.03
2023-01-22T09:14:17.796Z,100481.03
2023-01-22T09:20:20.005Z,100476.09
2023-01-22T09:26:22.180Z,100487.38
2023-01-22T09:32:24.088Z,100500.66
2023-01-22T09:38:25.955Z,100512.94
2023-01-22T09:44:44.129Z,100518.34
2023-01-22T09:50:47.059Z,100526.50
2023-01-22T09:56:52.877Z,100532.78
2023-01-22T10:03:01.750Z,100535.78
2023-01-22T10:09:16.037Z,100531.00
2023-01-22T10:15:22.615Z,100537.38
2023-01-22T10:21:32.395Z,100535.31
2023-01-22T10:27:41.475Z,100544.81
2023-01-22T10:33:45.185Z,100537.66
2023-01-22T10:39:50.537Z,100538.13
2023-01-22T10:45:59.492Z,100542.91
2023-01-22T10:52:18.610Z,100538.56
2023-01-22T10:58:23.185Z,100546.19
2023-01-22T11:04:32.980Z,100537.84
2023-01-22T11:11:00.311Z,100545.09
2023-01-22T11:17:29.095Z,100548.69
2023-01-22T11:23:46.668Z,100549.06
2023-01-22T11:30:18.080Z,100546.25
2023-01-22T11:36:42.846Z,100534.28
2023-01-22T11:43:18.847Z,100544.13
2023-01-22T11:50:31.821Z,100541.28
2023-01-22T11:56:49.875Z,100548.06
2023-01-22T12:03:10.101Z,100537.84
2023-01-22T12:09:20.712Z,100537.59
2023-01-22T12:15:38.327Z,100540.25
2023-01-22T12:21:52.984Z,100533.47
2023-01-22T12:28:03.996Z,100537.19
2023-01-22T12:34:25.482Z,100542.03
2023-01-22T12:40:48.706Z,100536.31
2023-01-22T12:47:24.611Z,100533.75
2023-01-22T12:53:30.340Z,100533.88
2023-01-22T12:59:38.885Z,100537.63
2023-01-22T13:05:45.522Z,100543.38
2023-01-22T13:11:47.406Z,100547.47
2023-01-22T13:18:28.092Z,100553.94
2023-01-22T13:24:30.002Z,100558.28
2023-01-22T13:30:32.308Z,100564.66
2023-01-22T13:36:37.874Z,100564.34
2023-01-22T13:42:45.790Z,100567.34
2023-01-22T13:48:47.760Z,100577.25
2023-01-22T13:55:12.315Z,100582.44
2023-01-22T14:01:31.878Z,100581.56
2023-01-22T14:07:39.604Z,100588.38
2023-01-22T14:13:43.888Z,100592.72
2023-01-22T14:19:46.669Z,100597.66
2023-01-22T14:25:52.569Z,100599.19
2023-01-22T14:31:54.519Z,100602.31
2023-01-22T14:37:56.971Z,100595.84
2023-01-22T14:43:58.872Z,100605.50
2023-01-22T14:50:02.070Z,100607.00
2023-01-22T14:56:05.091Z,100608.44
2023-01-22T15:02:07.033Z,100602.19
2023-01-22T15:08:08.980Z,100608.03
2023-01-22T15:14:11.021Z,100613.75
2023-01-22T15:20:13.191Z,100624.41
2023-01-22T15:26:35.034Z,100639.31
2023-01-22T15:32:36.980Z,100638.81
2023-01-22T15:38:38.889Z,100648.28
2023-01-22T15:44:41.106Z,100655.88
2023-01-22T15:50:43.001Z,100662.81
2023-01-22T15:56:45.077Z,100673.13
2023-01-22T16:02:47.042Z,100667.50
2023-01-22T16:08:50.477Z,100683.63
2023-01-22T16:14:52.526Z,100685.59
2023-01-22T16:20:54.444Z,100696.63
2023-01-22T16:26:56.333Z,100693.75
2023-01-22T16:32:58.306Z,100696.56
2023-01-22T16:39:01.081Z,100706.19
2023-01-22T16:45:03.137Z,100715.09
2023-01-22T16:51:06.024Z,100716.38
2023-01-22T16:57:09.646Z,100712.16
2023-01-22T17:03:11.549Z,100723.47
2023-01-22T17:09:18.460Z,100732.66
2023-01-22T17:15:20.579Z,100726.00
2023-01-22T17:21:22.792Z,100727.47
2023-01-22T17:27:25.793Z,100729.91
2023-01-22T17:33:28.735Z,100737.72
2023-01-22T17:39:30.621Z,100741.00
2023-01-22T17:45:32.518Z,100744.72
2023-01-22T17:51:35.767Z,100749.44
2023-01-22T17:57:37.678Z,100762.59
2023-01-22T18:03:39.820Z,100764.72
2023-01-22T18:09:41.734Z,100765.69
2023-01-22T18:15:47.541Z,100764.41
2023-01-22T18:21:50.174Z,100767.03
2023-01-22T18:27:52.150Z,100773.50
2023-01-22T18:34:03.512Z,100774.91
2023-01-22T18:40:06.307Z,100786.41
2023-01-22T18:46:12.084Z,100783.03
2023-01-22T18:52:14.028Z,100783.16
2023-01-22T18:58:27.629Z,100788.47
2023-01-22T19:04:30.334Z,100781.34
2023-01-22T19:10:32.653Z,100785.19
2023-01-22T19:16:37.079Z,100793.31
2023-01-22T19:22:38.964Z,100800.22
2023-01-22T19:28:40.933Z,100809.09
2023-01-22T19:34:43.400Z,100805.59
2023-01-22T19:40:45.373Z,100813.53
2023-01-22T19:46:47.385Z,100825.59
2023-01-22T19:52:49.373Z,100830.88
2023-01-22T19:58:56.815Z,100822.41
2023-01-22T20:04:58.733Z,100829.41
2023-01-22T20:11:01.427Z,100838.41
2023-01-22T20:17:03.764Z,100843.16
2023-01-22T20:23:05.659Z,100848.16
2023-01-22T20:29:07.611Z,100861.16
2023-01-22T20:35:11.771Z,100853.94
2023-01-22T20:41:14.660Z,100856.91
2023-01-22T20:47:16.615Z,100844.44
2023-01-22T20:53:19.830Z,100844.00
2023-01-22T20:59:23.526Z,100838.84
2023-01-22T21:05:25.429Z,100852.34
2023-01-22T21:11:30.917Z,100868.22
2023-01-22T21:17:32.830Z,100862.75
2023-01-22T21:23:36.973Z,100864.00
2023-01-22T21:29:39.856Z,100865.59
2023-01-22T21:35:49.550Z,100862.63
2023-01-22T21:41:52.039Z,100873.28
2023-01-22T21:47:53.935Z,100867.59
2023-01-22T21:53:57.460Z,100873.50
2023-01-22T21:59:59.364Z,100866.75
2023-01-22T22:06:02.499Z,100868.44
2023-01-22T22:12:05.688Z,100871.13
2023-01-22T22:18:07.797Z,100875.44
2023-01-22T22:24:11.000Z,100873.72
2023-01-22T22:30:13.522Z,100876.69
2023-01-22T22:36:19.348Z,100882.41
2023-01-22T22:42:21.248Z,100878.28
2023-01-22T22:48:23.156Z,100875.31
2023-01-22T22:54:25.108Z,100884.16
2023-01-22T23:00:27.089Z,100875.28
2023-01-22T23:06:33.329Z,100888.94
2023-01-22T23:12:35.289Z,100878.78
2023-01-22T23:18:37.383Z,100875.41
2023-01-22T23:24:39.565Z,100877.56
2023-01-22T23:30:41.533Z,100886.66
2023-01-22T23:36:45.793Z,100890.97
2023-01-22T23:42:49.487Z,100885.69
2023-01-22T23:48:52.733Z,100888.47
2023-01-22T23:54:54.617Z,100900.72
